メインページ
METAR-TAF:

METAR-TAF

空港 :

木更津駐屯地

木更津, 日本

緯度: 35-24N, 経度: 139-55E, 海抜: 3m

現時点の気象観測

当レポートは22時間16分前の00:09(UTC)に作成
の風 5kt
気温 13°C
湿度 72%
気圧 1024 hPa
視程10km以上
高度3000ftの雲はほとんどない
高度7000ftの千切れ雲あり

METAR: RJTK 160009Z 36005KT 9999 FEW030 BKN070 13/08 Q1024 RMK 1CU030 5AC070 A3025

時間: 07:25 (22:25 UTC)


TAF: 見つかりません

4,000以上の空港の気象観測と天気予報(METAR報とTAF報)

利用可能な観測所は地図上に黄色い丸と赤い丸で示す。

丸の上にカーソルを重ねると観測所名を参照できる。

次にクリックすると気象観測と天気予報を参照できる。

マップの切り替え:黒色「×」印の緑ボタンをクリックして拡大、「-」印の緑ボタンをクリックして縮小、緑色の三角印をクリックして隣りの地図に切り替え


METAR-TAF: